Nashville, Tennessee
Traffic Map
Current Weather Conditions
Nashville, Tennessee
Broken Clouds
Broken Clouds
30°
Feels Like: 32°
Wind Chill: 30° Ceiling: 25000
Heat Index: 32° Visibility: 10mi
Dew Point: 21° Wind: 7mph
Humidity: 57% Direction: 10° (N)
Pressure: 30.03in Gusts: 0mph
Raw Report DataKBNA 250053Z 01006KT 10SM SCT050 SCT140 BKN250 30/21 A3003 RMK AO2 SLP162 CB DSNT SW T03000206
Traffic Incident Summary
Active as of:
Severity:
Category:
InformationThere was an issue retrieving the traffic information for this location. Please try a different location or try again shortly.
Advertisements
Track Severe Weather on mobile